Standish, California
Current Conditions -  °F | °C
As of 2:15 PM on Saturday 25 Oct 2014 (Local Time) from KRTS Reporting Station
Light Rain Light Rain  
Wind Chill: 39°   Ceiling: 2700
Heat Index: 46°   Visibility: 9mi
Dew Point: 37°   Wind: 20mph
Humidity: 71%   Direction: 240°WSW
Pressure: 30.03"   Gusts: 26mph
Location:  40.36°N, 120.42°W
Report Text: KRTS 252115Z AUTO 24017G23KT 220V280 9SM -RA BKN027 08/03 A3003 RMK AO2
Loading
Personal Weather Stations






























Interactive Weather Map
Tropical Storm Tracking
New forecast layout! Learn more

10-Day Weather Forecast

Advertisements
Track Severe Weather on mobile